sensor_id;sensor_type;location;lat;lon;timestamp;P1;durP1;ratioP1;P2;durP2;ratioP2
2720;SDS011;1368;49.484;11.112;2022-12-29T00:01:28;4.30;;;2.00;;
2720;SDS011;1368;49.484;11.112;2022-12-29T00:03:54;4.93;;;2.33;;
2720;SDS011;1368;49.484;11.112;2022-12-29T00:06:20;4.10;;;2.40;;
2720;SDS011;1368;49.484;11.112;2022-12-29T00:08:46;3.70;;;2.10;;
2720;SDS011;1368;49.484;11.112;2022-12-29T00:11:12;5.20;;;2.43;;
2720;SDS011;1368;49.484;11.112;2022-12-29T00:13:45;3.53;;;2.40;;
2720;SDS011;1368;49.484;11.112;2022-12-29T00:16:29;3.80;;;2.80;;
2720;SDS011;1368;49.484;11.112;2022-12-29T00:18:56;3.57;;;2.40;;
2720;SDS011;1368;49.484;11.112;2022-12-29T00:21:22;3.90;;;2.33;;
2720;SDS011;1368;49.484;11.112;2022-12-29T00:24:17;4.60;;;2.30;;
2720;SDS011;1368;49.484;11.112;2022-12-29T00:29:47;4.20;;;2.33;;
2720;SDS011;1368;49.484;11.112;2022-12-29T00:32:32;4.40;;;2.40;;
2720;SDS011;1368;49.484;11.112;2022-12-29T00:35:28;4.53;;;2.97;;
2720;SDS011;1368;49.484;11.112;2022-12-29T00:37:55;3.83;;;2.20;;
2720;SDS011;1368;49.484;11.112;2022-12-29T00:40:42;5.10;;;2.77;;
2720;SDS011;1368;49.484;11.112;2022-12-29T00:43:26;4.10;;;2.60;;
2720;SDS011;1368;49.484;11.112;2022-12-29T00:46:11;5.50;;;2.80;;
2720;SDS011;1368;49.484;11.112;2022-12-29T00:48:36;4.40;;;3.17;;
2720;SDS011;1368;49.484;11.112;2022-12-29T00:51:20;3.57;;;2.70;;
2720;SDS011;1368;49.484;11.112;2022-12-29T00:53:46;5.50;;;2.90;;
2720;SDS011;1368;49.484;11.112;2022-12-29T00:56:11;7.03;;;3.20;;
2720;SDS011;1368;49.484;11.112;2022-12-29T00:58:37;3.13;;;2.13;;
2720;SDS011;1368;49.484;11.112;2022-12-29T01:01:06;3.20;;;2.20;;
2720;SDS011;1368;49.484;11.112;2022-12-29T01:03:33;7.43;;;2.57;;
2720;SDS011;1368;49.484;11.112;2022-12-29T01:06:01;4.20;;;2.50;;
2720;SDS011;1368;49.484;11.112;2022-12-29T01:08:28;4.90;;;2.60;;
2720;SDS011;1368;49.484;11.112;2022-12-29T01:11:01;3.90;;;2.23;;
2720;SDS011;1368;49.484;11.112;2022-12-29T01:13:31;3.10;;;2.00;;
2720;SDS011;1368;49.484;11.112;2022-12-29T01:15:57;3.83;;;2.43;;
2720;SDS011;1368;49.484;11.112;2022-12-29T01:18:23;4.40;;;2.70;;
2720;SDS011;1368;49.484;11.112;2022-12-29T01:20:49;5.83;;;2.30;;
2720;SDS011;1368;49.484;11.112;2022-12-29T01:23:15;4.20;;;2.20;;
2720;SDS011;1368;49.484;11.112;2022-12-29T01:25:41;2.90;;;2.23;;
2720;SDS011;1368;49.484;11.112;2022-12-29T01:28:06;4.30;;;2.03;;
2720;SDS011;1368;49.484;11.112;2022-12-29T01:30:33;5.07;;;2.50;;
2720;SDS011;1368;49.484;11.112;2022-12-29T01:32:59;5.40;;;3.00;;
2720;SDS011;1368;49.484;11.112;2022-12-29T01:35:25;3.90;;;2.80;;
2720;SDS011;1368;49.484;11.112;2022-12-29T01:37:51;3.20;;;2.43;;
2720;SDS011;1368;49.484;11.112;2022-12-29T01:40:16;4.23;;;2.57;;
2720;SDS011;1368;49.484;11.112;2022-12-29T01:42:42;2.90;;;2.37;;
2720;SDS011;1368;49.484;11.112;2022-12-29T01:45:14;3.00;;;2.40;;
2720;SDS011;1368;49.484;11.112;2022-12-29T01:47:43;4.93;;;2.90;;
2720;SDS011;1368;49.484;11.112;2022-12-29T01:50:55;4.10;;;2.43;;
2720;SDS011;1368;49.484;11.112;2022-12-29T01:53:07;3.80;;;2.47;;
2720;SDS011;1368;49.484;11.112;2022-12-29T01:55:37;2.67;;;2.00;;
2720;SDS011;1368;49.484;11.112;2022-12-29T01:58:07;3.50;;;2.57;;
2720;SDS011;1368;49.484;11.112;2022-12-29T02:00:34;4.83;;;2.70;;
2720;SDS011;1368;49.484;11.112;2022-12-29T02:03:02;5.33;;;2.63;;
2720;SDS011;1368;49.484;11.112;2022-12-29T02:05:39;4.20;;;2.50;;
2720;SDS011;1368;49.484;11.112;2022-12-29T02:08:11;5.13;;;2.80;;
2720;SDS011;1368;49.484;11.112;2022-12-29T02:10:37;4.60;;;2.23;;
2720;SDS011;1368;49.484;11.112;2022-12-29T02:13:05;3.70;;;2.77;;
2720;SDS011;1368;49.484;11.112;2022-12-29T02:18:49;7.03;;;2.83;;
2720;SDS011;1368;49.484;11.112;2022-12-29T02:41:20;4.60;;;2.73;;
2720;SDS011;1368;49.484;11.112;2022-12-29T02:51:39;4.30;;;2.77;;
2720;SDS011;1368;49.484;11.112;2022-12-29T02:54:23;3.90;;;2.60;;
2720;SDS011;1368;49.484;11.112;2022-12-29T02:57:09;4.20;;;2.67;;
2720;SDS011;1368;49.484;11.112;2022-12-29T02:59:36;4.77;;;2.53;;
2720;SDS011;1368;49.484;11.112;2022-12-29T03:02:08;4.67;;;2.70;;
2720;SDS011;1368;49.484;11.112;2022-12-29T03:05:04;2.60;;;1.90;;
2720;SDS011;1368;49.484;11.112;2022-12-29T03:07:43;8.17;;;2.57;;
2720;SDS011;1368;49.484;11.112;2022-12-29T03:12:56;3.67;;;2.70;;
2720;SDS011;1368;49.484;11.112;2022-12-29T03:21:14;3.83;;;2.53;;
2720;SDS011;1368;49.484;11.112;2022-12-29T03:23:45;3.20;;;2.03;;
2720;SDS011;1368;49.484;11.112;2022-12-29T03:26:14;3.60;;;2.20;;
2720;SDS011;1368;49.484;11.112;2022-12-29T03:28:48;5.03;;;2.73;;
2720;SDS011;1368;49.484;11.112;2022-12-29T03:31:17;4.67;;;2.23;;
2720;SDS011;1368;49.484;11.112;2022-12-29T03:33:44;5.90;;;2.73;;
2720;SDS011;1368;49.484;11.112;2022-12-29T03:36:13;3.50;;;2.30;;
2720;SDS011;1368;49.484;11.112;2022-12-29T03:38:46;3.83;;;2.30;;
2720;SDS011;1368;49.484;11.112;2022-12-29T03:41:28;4.03;;;2.50;;
2720;SDS011;1368;49.484;11.112;2022-12-29T03:43:56;4.03;;;2.67;;
2720;SDS011;1368;49.484;11.112;2022-12-29T03:46:22;4.03;;;2.30;;
2720;SDS011;1368;49.484;11.112;2022-12-29T03:48:48;5.90;;;2.67;;
2720;SDS011;1368;49.484;11.112;2022-12-29T03:51:13;4.00;;;2.17;;
2720;SDS011;1368;49.484;11.112;2022-12-29T03:53:39;3.70;;;2.53;;
2720;SDS011;1368;49.484;11.112;2022-12-29T03:56:04;4.43;;;2.30;;
2720;SDS011;1368;49.484;11.112;2022-12-29T03:58:30;6.40;;;2.63;;
2720;SDS011;1368;49.484;11.112;2022-12-29T04:00:56;3.60;;;2.13;;
2720;SDS011;1368;49.484;11.112;2022-12-29T04:03:22;3.40;;;1.97;;
2720;SDS011;1368;49.484;11.112;2022-12-29T04:05:47;5.53;;;2.70;;
2720;SDS011;1368;49.484;11.112;2022-12-29T04:08:13;4.17;;;2.50;;
2720;SDS011;1368;49.484;11.112;2022-12-29T04:10:38;4.70;;;2.90;;
2720;SDS011;1368;49.484;11.112;2022-12-29T04:13:04;3.13;;;2.47;;
2720;SDS011;1368;49.484;11.112;2022-12-29T04:15:29;4.00;;;2.40;;
2720;SDS011;1368;49.484;11.112;2022-12-29T04:17:55;3.23;;;2.60;;
2720;SDS011;1368;49.484;11.112;2022-12-29T04:20:20;4.10;;;2.10;;
2720;SDS011;1368;49.484;11.112;2022-12-29T04:23:05;3.53;;;2.60;;
2720;SDS011;1368;49.484;11.112;2022-12-29T04:25:32;3.57;;;2.40;;
2720;SDS011;1368;49.484;11.112;2022-12-29T04:27:58;2.97;;;2.03;;
2720;SDS011;1368;49.484;11.112;2022-12-29T04:30:23;4.20;;;3.10;;
2720;SDS011;1368;49.484;11.112;2022-12-29T04:32:49;3.73;;;2.13;;
2720;SDS011;1368;49.484;11.112;2022-12-29T04:35:15;6.63;;;3.43;;
2720;SDS011;1368;49.484;11.112;2022-12-29T04:37:40;5.03;;;2.50;;
2720;SDS011;1368;49.484;11.112;2022-12-29T04:40:06;5.67;;;2.07;;
2720;SDS011;1368;49.484;11.112;2022-12-29T04:42:32;4.63;;;2.40;;
2720;SDS011;1368;49.484;11.112;2022-12-29T04:44:58;4.20;;;2.60;;
2720;SDS011;1368;49.484;11.112;2022-12-29T04:47:23;3.87;;;2.53;;
2720;SDS011;1368;49.484;11.112;2022-12-29T04:49:49;4.83;;;2.67;;
2720;SDS011;1368;49.484;11.112;2022-12-29T04:52:14;4.90;;;2.33;;
2720;SDS011;1368;49.484;11.112;2022-12-29T04:54:40;4.97;;;2.30;;
2720;SDS011;1368;49.484;11.112;2022-12-29T04:57:05;3.93;;;2.30;;
2720;SDS011;1368;49.484;11.112;2022-12-29T04:59:31;3.23;;;2.20;;
2720;SDS011;1368;49.484;11.112;2022-12-29T05:01:56;3.23;;;2.37;;
2720;SDS011;1368;49.484;11.112;2022-12-29T05:04:22;4.47;;;2.20;;
2720;SDS011;1368;49.484;11.112;2022-12-29T05:06:47;3.37;;;2.10;;
2720;SDS011;1368;49.484;11.112;2022-12-29T05:09:13;6.77;;;2.80;;
2720;SDS011;1368;49.484;11.112;2022-12-29T05:11:39;4.47;;;2.30;;
2720;SDS011;1368;49.484;11.112;2022-12-29T05:14:04;4.07;;;2.53;;
2720;SDS011;1368;49.484;11.112;2022-12-29T05:16:30;4.80;;;2.60;;
2720;SDS011;1368;49.484;11.112;2022-12-29T05:18:55;5.37;;;2.73;;
2720;SDS011;1368;49.484;11.112;2022-12-29T05:21:21;4.73;;;2.53;;
2720;SDS011;1368;49.484;11.112;2022-12-29T05:23:46;5.97;;;2.47;;
2720;SDS011;1368;49.484;11.112;2022-12-29T05:26:12;3.47;;;2.27;;
2720;SDS011;1368;49.484;11.112;2022-12-29T05:28:37;5.33;;;2.93;;
2720;SDS011;1368;49.484;11.112;2022-12-29T05:31:03;3.00;;;1.90;;
2720;SDS011;1368;49.484;11.112;2022-12-29T05:33:28;3.50;;;2.33;;
2720;SDS011;1368;49.484;11.112;2022-12-29T05:35:54;5.83;;;2.00;;
2720;SDS011;1368;49.484;11.112;2022-12-29T05:38:19;3.80;;;2.37;;
2720;SDS011;1368;49.484;11.112;2022-12-29T05:40:45;4.67;;;2.33;;
2720;SDS011;1368;49.484;11.112;2022-12-29T05:43:11;3.67;;;2.33;;
2720;SDS011;1368;49.484;11.112;2022-12-29T05:45:36;2.73;;;1.93;;
2720;SDS011;1368;49.484;11.112;2022-12-29T05:48:02;4.17;;;2.40;;
2720;SDS011;1368;49.484;11.112;2022-12-29T05:50:28;4.33;;;2.50;;
2720;SDS011;1368;49.484;11.112;2022-12-29T05:52:53;3.33;;;2.47;;
2720;SDS011;1368;49.484;11.112;2022-12-29T05:55:19;3.90;;;2.23;;
2720;SDS011;1368;49.484;11.112;2022-12-29T05:57:45;5.20;;;2.33;;
2720;SDS011;1368;49.484;11.112;2022-12-29T06:00:10;4.30;;;2.23;;
2720;SDS011;1368;49.484;11.112;2022-12-29T06:02:36;4.30;;;2.47;;
2720;SDS011;1368;49.484;11.112;2022-12-29T06:05:02;3.00;;;1.80;;
2720;SDS011;1368;49.484;11.112;2022-12-29T06:07:28;3.50;;;2.17;;
2720;SDS011;1368;49.484;11.112;2022-12-29T06:09:53;5.07;;;2.50;;
2720;SDS011;1368;49.484;11.112;2022-12-29T06:12:19;3.10;;;1.90;;
2720;SDS011;1368;49.484;11.112;2022-12-29T06:14:44;4.13;;;2.50;;
2720;SDS011;1368;49.484;11.112;2022-12-29T06:17:10;4.37;;;1.70;;
2720;SDS011;1368;49.484;11.112;2022-12-29T06:19:35;6.83;;;2.60;;
2720;SDS011;1368;49.484;11.112;2022-12-29T06:22:01;3.10;;;1.97;;
2720;SDS011;1368;49.484;11.112;2022-12-29T06:24:26;4.07;;;2.53;;
2720;SDS011;1368;49.484;11.112;2022-12-29T06:26:52;4.37;;;2.07;;
2720;SDS011;1368;49.484;11.112;2022-12-29T06:29:18;3.80;;;2.20;;
2720;SDS011;1368;49.484;11.112;2022-12-29T06:31:45;3.20;;;2.03;;
2720;SDS011;1368;49.484;11.112;2022-12-29T06:34:11;6.13;;;2.67;;
2720;SDS011;1368;49.484;11.112;2022-12-29T06:36:38;6.30;;;2.30;;
2720;SDS011;1368;49.484;11.112;2022-12-29T06:39:03;3.77;;;2.07;;
2720;SDS011;1368;49.484;11.112;2022-12-29T06:41:29;2.87;;;1.90;;
2720;SDS011;1368;49.484;11.112;2022-12-29T06:43:55;3.53;;;2.07;;
2720;SDS011;1368;49.484;11.112;2022-12-29T06:46:20;4.77;;;2.23;;
2720;SDS011;1368;49.484;11.112;2022-12-29T06:48:46;4.37;;;2.00;;
2720;SDS011;1368;49.484;11.112;2022-12-29T06:51:11;6.60;;;2.73;;
2720;SDS011;1368;49.484;11.112;2022-12-29T06:53:37;4.83;;;2.87;;
2720;SDS011;1368;49.484;11.112;2022-12-29T06:56:03;4.00;;;2.43;;
2720;SDS011;1368;49.484;11.112;2022-12-29T06:58:29;3.53;;;2.20;;
2720;SDS011;1368;49.484;11.112;2022-12-29T07:00:54;3.90;;;1.90;;
2720;SDS011;1368;49.484;11.112;2022-12-29T07:03:20;4.20;;;2.57;;
2720;SDS011;1368;49.484;11.112;2022-12-29T07:05:45;5.00;;;2.30;;
2720;SDS011;1368;49.484;11.112;2022-12-29T07:08:11;3.43;;;2.13;;
2720;SDS011;1368;49.484;11.112;2022-12-29T07:10:36;3.70;;;2.00;;
2720;SDS011;1368;49.484;11.112;2022-12-29T07:13:02;4.33;;;2.27;;
2720;SDS011;1368;49.484;11.112;2022-12-29T07:15:27;5.03;;;2.60;;
2720;SDS011;1368;49.484;11.112;2022-12-29T07:17:53;3.70;;;2.30;;
2720;SDS011;1368;49.484;11.112;2022-12-29T07:20:19;4.60;;;2.20;;
2720;SDS011;1368;49.484;11.112;2022-12-29T07:22:44;4.20;;;2.03;;
2720;SDS011;1368;49.484;11.112;2022-12-29T07:25:10;3.10;;;2.00;;
2720;SDS011;1368;49.484;11.112;2022-12-29T07:27:35;6.67;;;2.67;;
2720;SDS011;1368;49.484;11.112;2022-12-29T07:30:01;4.73;;;2.40;;
2720;SDS011;1368;49.484;11.112;2022-12-29T07:32:26;4.63;;;2.00;;
2720;SDS011;1368;49.484;11.112;2022-12-29T07:34:52;4.90;;;2.57;;
2720;SDS011;1368;49.484;11.112;2022-12-29T07:37:18;3.50;;;2.03;;
2720;SDS011;1368;49.484;11.112;2022-12-29T07:39:43;3.30;;;2.30;;
2720;SDS011;1368;49.484;11.112;2022-12-29T07:42:09;4.67;;;2.40;;
2720;SDS011;1368;49.484;11.112;2022-12-29T07:44:34;4.63;;;2.20;;
2720;SDS011;1368;49.484;11.112;2022-12-29T07:47:01;3.33;;;2.20;;
2720;SDS011;1368;49.484;11.112;2022-12-29T07:49:27;4.00;;;2.37;;
2720;SDS011;1368;49.484;11.112;2022-12-29T07:51:53;4.20;;;2.40;;
2720;SDS011;1368;49.484;11.112;2022-12-29T07:54:18;5.03;;;2.20;;
2720;SDS011;1368;49.484;11.112;2022-12-29T07:56:44;4.67;;;2.50;;
2720;SDS011;1368;49.484;11.112;2022-12-29T07:59:10;5.80;;;3.30;;
2720;SDS011;1368;49.484;11.112;2022-12-29T08:01:37;6.80;;;4.80;;
2720;SDS011;1368;49.484;11.112;2022-12-29T08:04:02;4.70;;;2.50;;
2720;SDS011;1368;49.484;11.112;2022-12-29T08:06:28;4.17;;;2.23;;
2720;SDS011;1368;49.484;11.112;2022-12-29T08:08:55;5.37;;;3.13;;
2720;SDS011;1368;49.484;11.112;2022-12-29T08:11:21;4.80;;;2.70;;
2720;SDS011;1368;49.484;11.112;2022-12-29T08:13:47;15.53;;;4.50;;
2720;SDS011;1368;49.484;11.112;2022-12-29T08:16:13;4.80;;;2.87;;
2720;SDS011;1368;49.484;11.112;2022-12-29T08:18:39;4.80;;;2.73;;
2720;SDS011;1368;49.484;11.112;2022-12-29T08:21:04;4.30;;;2.87;;
2720;SDS011;1368;49.484;11.112;2022-12-29T08:23:31;4.93;;;2.53;;
2720;SDS011;1368;49.484;11.112;2022-12-29T08:26:00;6.00;;;2.47;;
2720;SDS011;1368;49.484;11.112;2022-12-29T08:28:27;4.90;;;2.80;;
2720;SDS011;1368;49.484;11.112;2022-12-29T08:30:53;4.30;;;2.60;;
2720;SDS011;1368;49.484;11.112;2022-12-29T08:33:19;5.60;;;2.40;;
2720;SDS011;1368;49.484;11.112;2022-12-29T08:35:44;4.37;;;2.83;;
2720;SDS011;1368;49.484;11.112;2022-12-29T08:38:10;4.10;;;2.73;;
2720;SDS011;1368;49.484;11.112;2022-12-29T08:40:38;4.17;;;2.63;;
2720;SDS011;1368;49.484;11.112;2022-12-29T08:43:04;4.73;;;2.40;;
2720;SDS011;1368;49.484;11.112;2022-12-29T08:45:30;6.03;;;2.47;;
2720;SDS011;1368;49.484;11.112;2022-12-29T08:47:56;3.70;;;1.90;;
2720;SDS011;1368;49.484;11.112;2022-12-29T08:50:21;3.60;;;2.37;;
2720;SDS011;1368;49.484;11.112;2022-12-29T08:52:47;6.33;;;2.83;;
2720;SDS011;1368;49.484;11.112;2022-12-29T08:55:12;4.57;;;2.07;;
2720;SDS011;1368;49.484;11.112;2022-12-29T08:57:38;4.17;;;2.00;;
2720;SDS011;1368;49.484;11.112;2022-12-29T09:00:04;3.10;;;1.97;;
2720;SDS011;1368;49.484;11.112;2022-12-29T09:02:30;6.07;;;2.60;;
2720;SDS011;1368;49.484;11.112;2022-12-29T09:04:56;4.23;;;2.20;;
2720;SDS011;1368;49.484;11.112;2022-12-29T09:07:22;4.77;;;2.80;;
2720;SDS011;1368;49.484;11.112;2022-12-29T09:09:48;2.93;;;2.00;;
2720;SDS011;1368;49.484;11.112;2022-12-29T09:12:15;7.43;;;2.80;;
2720;SDS011;1368;49.484;11.112;2022-12-29T09:14:41;4.73;;;2.00;;
2720;SDS011;1368;49.484;11.112;2022-12-29T09:17:07;3.70;;;2.30;;
2720;SDS011;1368;49.484;11.112;2022-12-29T09:19:52;4.83;;;2.33;;
2720;SDS011;1368;49.484;11.112;2022-12-29T09:22:18;4.07;;;2.30;;
2720;SDS011;1368;49.484;11.112;2022-12-29T09:24:43;6.60;;;2.60;;
2720;SDS011;1368;49.484;11.112;2022-12-29T09:27:09;5.40;;;2.30;;
2720;SDS011;1368;49.484;11.112;2022-12-29T09:29:34;4.60;;;2.53;;
2720;SDS011;1368;49.484;11.112;2022-12-29T09:32:00;5.50;;;2.33;;
2720;SDS011;1368;49.484;11.112;2022-12-29T09:34:26;5.00;;;2.70;;
2720;SDS011;1368;49.484;11.112;2022-12-29T09:36:51;5.00;;;2.50;;
2720;SDS011;1368;49.484;11.112;2022-12-29T09:39:17;3.90;;;2.17;;
2720;SDS011;1368;49.484;11.112;2022-12-29T09:41:49;4.60;;;2.20;;
2720;SDS011;1368;49.484;11.112;2022-12-29T09:44:43;3.10;;;2.10;;
2720;SDS011;1368;49.484;11.112;2022-12-29T09:47:12;5.03;;;2.43;;
2720;SDS011;1368;49.484;11.112;2022-12-29T09:49:42;3.30;;;2.17;;
2720;SDS011;1368;49.484;11.112;2022-12-29T09:52:13;4.20;;;2.03;;
2720;SDS011;1368;49.484;11.112;2022-12-29T09:57:35;5.53;;;2.47;;
2720;SDS011;1368;49.484;11.112;2022-12-29T10:00:11;5.20;;;2.50;;
2720;SDS011;1368;49.484;11.112;2022-12-29T10:02:56;5.40;;;3.10;;
2720;SDS011;1368;49.484;11.112;2022-12-29T10:05:35;6.20;;;2.80;;
2720;SDS011;1368;49.484;11.112;2022-12-29T10:08:30;5.33;;;2.60;;
2720;SDS011;1368;49.484;11.112;2022-12-29T10:17:18;4.43;;;2.43;;
2720;SDS011;1368;49.484;11.112;2022-12-29T10:25:18;9.00;;;3.37;;
2720;SDS011;1368;49.484;11.112;2022-12-29T10:27:47;4.80;;;2.80;;
2720;SDS011;1368;49.484;11.112;2022-12-29T10:30:14;6.53;;;2.60;;
2720;SDS011;1368;49.484;11.112;2022-12-29T10:32:51;4.00;;;2.90;;
2720;SDS011;1368;49.484;11.112;2022-12-29T10:35:23;7.33;;;2.57;;
2720;SDS011;1368;49.484;11.112;2022-12-29T10:37:55;3.20;;;2.33;;
2720;SDS011;1368;49.484;11.112;2022-12-29T10:40:33;7.70;;;3.50;;
2720;SDS011;1368;49.484;11.112;2022-12-29T10:43:07;4.80;;;2.93;;
2720;SDS011;1368;49.484;11.112;2022-12-29T10:46:05;5.50;;;2.80;;
2720;SDS011;1368;49.484;11.112;2022-12-29T10:48:35;5.20;;;2.60;;
2720;SDS011;1368;49.484;11.112;2022-12-29T10:51:02;4.73;;;2.60;;
2720;SDS011;1368;49.484;11.112;2022-12-29T10:53:38;4.50;;;2.80;;
2720;SDS011;1368;49.484;11.112;2022-12-29T10:56:21;7.17;;;3.37;;
2720;SDS011;1368;49.484;11.112;2022-12-29T10:58:54;4.67;;;3.07;;
2720;SDS011;1368;49.484;11.112;2022-12-29T11:01:22;5.80;;;3.27;;
2720;SDS011;1368;49.484;11.112;2022-12-29T11:04:03;8.47;;;3.83;;
2720;SDS011;1368;49.484;11.112;2022-12-29T11:06:41;6.87;;;3.83;;
2720;SDS011;1368;49.484;11.112;2022-12-29T11:09:09;5.20;;;2.90;;
2720;SDS011;1368;49.484;11.112;2022-12-29T11:11:49;9.50;;;4.00;;
2720;SDS011;1368;49.484;11.112;2022-12-29T11:14:18;4.17;;;3.00;;
2720;SDS011;1368;49.484;11.112;2022-12-29T11:16:56;4.40;;;2.93;;
2720;SDS011;1368;49.484;11.112;2022-12-29T11:19:24;4.13;;;2.90;;
2720;SDS011;1368;49.484;11.112;2022-12-29T11:21:52;5.73;;;2.30;;
2720;SDS011;1368;49.484;11.112;2022-12-29T11:24:19;6.37;;;2.93;;
2720;SDS011;1368;49.484;11.112;2022-12-29T11:26:54;5.83;;;3.00;;
2720;SDS011;1368;49.484;11.112;2022-12-29T11:29:27;8.57;;;2.90;;
2720;SDS011;1368;49.484;11.112;2022-12-29T11:31:55;7.90;;;3.40;;
2720;SDS011;1368;49.484;11.112;2022-12-29T11:34:30;9.63;;;5.83;;
2720;SDS011;1368;49.484;11.112;2022-12-29T11:37:20;7.53;;;3.03;;
2720;SDS011;1368;49.484;11.112;2022-12-29T11:39:52;6.20;;;2.80;;
2720;SDS011;1368;49.484;11.112;2022-12-29T11:42:40;5.77;;;3.00;;
2720;SDS011;1368;49.484;11.112;2022-12-29T11:47:42;4.83;;;2.83;;
2720;SDS011;1368;49.484;11.112;2022-12-29T11:50:15;4.67;;;2.83;;
2720;SDS011;1368;49.484;11.112;2022-12-29T11:52:45;8.70;;;3.23;;
2720;SDS011;1368;49.484;11.112;2022-12-29T11:55:22;6.00;;;3.70;;
2720;SDS011;1368;49.484;11.112;2022-12-29T11:57:50;8.70;;;2.70;;
2720;SDS011;1368;49.484;11.112;2022-12-29T12:00:20;4.40;;;2.50;;
2720;SDS011;1368;49.484;11.112;2022-12-29T12:03:02;6.20;;;2.63;;
2720;SDS011;1368;49.484;11.112;2022-12-29T12:05:46;4.40;;;2.27;;
2720;SDS011;1368;49.484;11.112;2022-12-29T12:08:29;5.10;;;2.80;;
2720;SDS011;1368;49.484;11.112;2022-12-29T12:11:20;5.03;;;3.00;;
2720;SDS011;1368;49.484;11.112;2022-12-29T12:13:57;4.90;;;2.73;;
2720;SDS011;1368;49.484;11.112;2022-12-29T12:16:28;4.30;;;2.73;;
2720;SDS011;1368;49.484;11.112;2022-12-29T12:19:01;5.43;;;3.23;;
2720;SDS011;1368;49.484;11.112;2022-12-29T12:24:45;4.13;;;2.70;;
2720;SDS011;1368;49.484;11.112;2022-12-29T12:27:28;3.50;;;2.37;;
2720;SDS011;1368;49.484;11.112;2022-12-29T12:35:33;3.97;;;2.53;;
2720;SDS011;1368;49.484;11.112;2022-12-29T12:40:58;5.97;;;2.83;;
2720;SDS011;1368;49.484;11.112;2022-12-29T12:54:45;7.20;;;3.43;;
2720;SDS011;1368;49.484;11.112;2022-12-29T13:00:09;5.97;;;3.27;;
2720;SDS011;1368;49.484;11.112;2022-12-29T13:02:47;6.90;;;2.77;;
2720;SDS011;1368;49.484;11.112;2022-12-29T13:16:20;5.93;;;3.63;;
2720;SDS011;1368;49.484;11.112;2022-12-29T13:22:02;5.43;;;3.27;;
2720;SDS011;1368;49.484;11.112;2022-12-29T13:32:21;6.43;;;3.20;;
2720;SDS011;1368;49.484;11.112;2022-12-29T13:38:00;5.30;;;3.70;;
2720;SDS011;1368;49.484;11.112;2022-12-29T13:40:38;6.17;;;3.43;;
2720;SDS011;1368;49.484;11.112;2022-12-29T13:43:08;9.60;;;4.13;;
2720;SDS011;1368;49.484;11.112;2022-12-29T13:45:34;6.33;;;4.40;;
2720;SDS011;1368;49.484;11.112;2022-12-29T13:48:14;5.60;;;3.87;;
2720;SDS011;1368;49.484;11.112;2022-12-29T13:50:51;5.83;;;3.40;;
2720;SDS011;1368;49.484;11.112;2022-12-29T14:02:02;8.90;;;3.50;;
2720;SDS011;1368;49.484;11.112;2022-12-29T14:04:32;7.83;;;4.73;;
2720;SDS011;1368;49.484;11.112;2022-12-29T14:07:04;8.27;;;4.00;;
2720;SDS011;1368;49.484;11.112;2022-12-29T14:09:45;7.37;;;3.73;;
2720;SDS011;1368;49.484;11.112;2022-12-29T14:15:26;6.63;;;3.53;;
2720;SDS011;1368;49.484;11.112;2022-12-29T14:20:46;5.80;;;3.80;;
2720;SDS011;1368;49.484;11.112;2022-12-29T14:26:00;5.30;;;3.27;;
2720;SDS011;1368;49.484;11.112;2022-12-29T14:28:54;5.33;;;3.10;;
2720;SDS011;1368;49.484;11.112;2022-12-29T14:39:01;5.27;;;3.27;;
2720;SDS011;1368;49.484;11.112;2022-12-29T14:41:32;6.27;;;3.40;;
2720;SDS011;1368;49.484;11.112;2022-12-29T14:49:20;6.57;;;3.80;;
2720;SDS011;1368;49.484;11.112;2022-12-29T14:51:48;5.77;;;3.53;;
2720;SDS011;1368;49.484;11.112;2022-12-29T14:57:13;7.07;;;3.03;;
2720;SDS011;1368;49.484;11.112;2022-12-29T14:59:52;7.57;;;4.00;;
2720;SDS011;1368;49.484;11.112;2022-12-29T15:02:21;7.23;;;4.20;;
2720;SDS011;1368;49.484;11.112;2022-12-29T15:04:50;8.83;;;4.20;;
2720;SDS011;1368;49.484;11.112;2022-12-29T15:07:18;5.90;;;3.20;;
2720;SDS011;1368;49.484;11.112;2022-12-29T15:09:45;6.50;;;3.10;;
2720;SDS011;1368;49.484;11.112;2022-12-29T15:12:41;7.37;;;3.33;;
2720;SDS011;1368;49.484;11.112;2022-12-29T15:15:25;4.37;;;3.23;;
2720;SDS011;1368;49.484;11.112;2022-12-29T15:17:53;7.97;;;3.60;;
2720;SDS011;1368;49.484;11.112;2022-12-29T15:22:54;7.33;;;4.10;;
2720;SDS011;1368;49.484;11.112;2022-12-29T15:25:20;8.80;;;3.80;;
2720;SDS011;1368;49.484;11.112;2022-12-29T15:27:52;5.63;;;3.43;;
2720;SDS011;1368;49.484;11.112;2022-12-29T15:30:22;6.50;;;4.27;;
2720;SDS011;1368;49.484;11.112;2022-12-29T15:32:48;6.50;;;3.30;;
2720;SDS011;1368;49.484;11.112;2022-12-29T15:35:36;7.77;;;4.03;;
2720;SDS011;1368;49.484;11.112;2022-12-29T15:38:15;5.63;;;3.53;;
2720;SDS011;1368;49.484;11.112;2022-12-29T15:40:47;6.20;;;3.97;;
2720;SDS011;1368;49.484;11.112;2022-12-29T15:43:31;5.73;;;3.73;;
2720;SDS011;1368;49.484;11.112;2022-12-29T15:46:01;4.90;;;3.47;;
2720;SDS011;1368;49.484;11.112;2022-12-29T15:48:27;4.90;;;3.57;;
2720;SDS011;1368;49.484;11.112;2022-12-29T15:50:54;8.47;;;5.03;;
2720;SDS011;1368;49.484;11.112;2022-12-29T15:53:24;5.13;;;3.53;;
2720;SDS011;1368;49.484;11.112;2022-12-29T15:56:02;6.10;;;3.80;;
2720;SDS011;1368;49.484;11.112;2022-12-29T15:58:39;4.60;;;3.63;;
2720;SDS011;1368;49.484;11.112;2022-12-29T16:01:16;11.30;;;4.33;;
2720;SDS011;1368;49.484;11.112;2022-12-29T16:03:44;7.23;;;4.57;;
2720;SDS011;1368;49.484;11.112;2022-12-29T16:06:24;6.90;;;3.73;;
2720;SDS011;1368;49.484;11.112;2022-12-29T16:09:03;7.60;;;4.73;;
2720;SDS011;1368;49.484;11.112;2022-12-29T16:11:35;7.70;;;4.60;;
2720;SDS011;1368;49.484;11.112;2022-12-29T16:14:06;8.40;;;4.20;;
2720;SDS011;1368;49.484;11.112;2022-12-29T16:16:36;5.60;;;4.03;;
2720;SDS011;1368;49.484;11.112;2022-12-29T16:21:53;5.93;;;3.83;;
2720;SDS011;1368;49.484;11.112;2022-12-29T16:24:21;6.33;;;4.07;;
2720;SDS011;1368;49.484;11.112;2022-12-29T16:27:02;6.70;;;4.03;;
2720;SDS011;1368;49.484;11.112;2022-12-29T16:29:44;6.13;;;4.23;;
2720;SDS011;1368;49.484;11.112;2022-12-29T16:32:30;6.50;;;3.90;;
2720;SDS011;1368;49.484;11.112;2022-12-29T16:35:10;6.63;;;4.00;;
2720;SDS011;1368;49.484;11.112;2022-12-29T16:37:36;7.70;;;4.60;;
2720;SDS011;1368;49.484;11.112;2022-12-29T16:42:47;5.30;;;4.23;;
2720;SDS011;1368;49.484;11.112;2022-12-29T16:45:28;7.40;;;4.00;;
2720;SDS011;1368;49.484;11.112;2022-12-29T16:51:38;7.13;;;4.50;;
2720;SDS011;1368;49.484;11.112;2022-12-29T16:54:05;7.17;;;4.20;;
2720;SDS011;1368;49.484;11.112;2022-12-29T16:56:33;7.90;;;4.43;;
2720;SDS011;1368;49.484;11.112;2022-12-29T17:01:34;10.17;;;4.43;;
2720;SDS011;1368;49.484;11.112;2022-12-29T17:04:04;8.00;;;4.77;;
2720;SDS011;1368;49.484;11.112;2022-12-29T17:06:32;6.17;;;4.33;;
2720;SDS011;1368;49.484;11.112;2022-12-29T17:08:57;7.47;;;4.33;;
2720;SDS011;1368;49.484;11.112;2022-12-29T17:11:24;7.87;;;5.13;;
2720;SDS011;1368;49.484;11.112;2022-12-29T17:16:54;7.87;;;5.10;;
2720;SDS011;1368;49.484;11.112;2022-12-29T17:19:30;5.40;;;4.50;;
2720;SDS011;1368;49.484;11.112;2022-12-29T17:21:58;8.50;;;4.90;;
2720;SDS011;1368;49.484;11.112;2022-12-29T17:24:23;12.33;;;6.00;;
2720;SDS011;1368;49.484;11.112;2022-12-29T17:26:50;12.80;;;6.27;;
2720;SDS011;1368;49.484;11.112;2022-12-29T17:29:19;16.83;;;8.83;;
2720;SDS011;1368;49.484;11.112;2022-12-29T17:31:53;14.90;;;8.73;;
2720;SDS011;1368;49.484;11.112;2022-12-29T17:34:19;13.13;;;8.90;;
2720;SDS011;1368;49.484;11.112;2022-12-29T17:36:45;11.87;;;8.10;;
2720;SDS011;1368;49.484;11.112;2022-12-29T17:39:11;11.70;;;8.00;;
2720;SDS011;1368;49.484;11.112;2022-12-29T17:41:36;15.10;;;8.73;;
2720;SDS011;1368;49.484;11.112;2022-12-29T17:44:02;14.30;;;9.40;;
2720;SDS011;1368;49.484;11.112;2022-12-29T17:46:29;18.60;;;8.83;;
2720;SDS011;1368;49.484;11.112;2022-12-29T17:48:54;15.63;;;8.83;;
2720;SDS011;1368;49.484;11.112;2022-12-29T17:51:20;16.40;;;9.00;;
2720;SDS011;1368;49.484;11.112;2022-12-29T17:53:46;12.20;;;7.80;;
2720;SDS011;1368;49.484;11.112;2022-12-29T17:56:12;11.00;;;7.60;;
2720;SDS011;1368;49.484;11.112;2022-12-29T17:58:37;10.70;;;7.10;;